createdAt,value
2017-07-29T00:00:39.763Z,0
2017-07-29T00:01:41.171Z,0
2017-07-29T00:02:42.631Z,0
2017-07-29T00:03:44.101Z,0
2017-07-29T00:04:45.573Z,0
2017-07-29T00:05:47.079Z,0
2017-07-29T00:06:48.519Z,0
2017-07-29T00:07:49.977Z,0
2017-07-29T00:08:51.500Z,0
2017-07-29T00:09:53.047Z,0
2017-07-29T00:10:54.478Z,0
2017-07-29T00:11:55.947Z,0
2017-07-29T00:12:57.343Z,0
2017-07-29T00:13:58.774Z,0
2017-07-29T00:15:00.328Z,0
2017-07-29T00:16:02.310Z,0
2017-07-29T00:17:03.748Z,0
2017-07-29T00:18:05.191Z,0
2017-07-29T00:19:06.670Z,0
2017-07-29T00:20:08.139Z,0
2017-07-29T00:21:09.594Z,0
2017-07-29T00:22:11.065Z,0
2017-07-29T00:23:12.516Z,0
2017-07-29T00:24:13.982Z,0
2017-07-29T00:25:15.624Z,0
2017-07-29T00:26:17.051Z,0
2017-07-29T00:27:18.508Z,0
2017-07-29T00:28:19.970Z,0
2017-07-29T00:29:21.404Z,0
2017-07-29T00:30:22.865Z,0
2017-07-29T00:31:24.344Z,0
2017-07-29T00:32:25.797Z,0
2017-07-29T00:33:27.271Z,0
2017-07-29T00:34:28.729Z,0
2017-07-29T00:35:30.166Z,0
2017-07-29T00:36:31.635Z,0
2017-07-29T00:37:33.074Z,0
2017-07-29T00:38:34.496Z,0
2017-07-29T00:39:35.923Z,0
2017-07-29T00:40:37.356Z,0
2017-07-29T00:41:38.782Z,0
2017-07-29T00:42:40.209Z,0
2017-07-29T00:43:41.745Z,0
2017-07-29T00:44:43.174Z,0
2017-07-29T00:45:44.596Z,0
2017-07-29T00:46:46.010Z,0
2017-07-29T00:47:47.436Z,0
2017-07-29T00:48:48.869Z,0
2017-07-29T00:49:50.280Z,0
2017-07-29T00:50:51.701Z,0
2017-07-29T00:51:53.120Z,0
2017-07-29T00:52:54.552Z,0
2017-07-29T00:53:55.973Z,0
2017-07-29T00:54:57.458Z,0
2017-07-29T00:55:58.878Z,0
2017-07-29T00:57:00.308Z,0
2017-07-29T00:58:01.733Z,0
2017-07-29T00:59:03.144Z,0
2017-07-29T01:00:04.575Z,0
2017-07-29T01:01:06.071Z,0
2017-07-29T01:02:07.490Z,0
2017-07-29T01:03:08.916Z,0
2017-07-29T01:04:10.343Z,0
2017-07-29T01:05:11.773Z,0
2017-07-29T01:06:13.201Z,0
2017-07-29T01:07:14.615Z,0
2017-07-29T01:08:16.042Z,0
2017-07-29T01:09:17.472Z,0
2017-07-29T01:10:18.946Z,0
2017-07-29T01:11:20.381Z,0
2017-07-29T01:12:21.798Z,0
2017-07-29T01:13:23.218Z,0
2017-07-29T01:14:24.640Z,0
2017-07-29T01:15:26.072Z,0
2017-07-29T01:16:27.497Z,0
2017-07-29T01:17:28.950Z,0
2017-07-29T01:18:30.375Z,0
2017-07-29T01:19:31.808Z,0
2017-07-29T01:20:33.228Z,0
2017-07-29T01:21:34.649Z,0
2017-07-29T01:22:36.074Z,0
2017-07-29T01:23:37.492Z,0
2017-07-29T01:24:38.915Z,0
2017-07-29T01:25:40.349Z,0
2017-07-29T01:26:41.774Z,0
2017-07-29T01:27:43.197Z,0
2017-07-29T01:28:44.625Z,0
2017-07-29T01:29:46.034Z,0
2017-07-29T01:30:47.454Z,0
2017-07-29T01:31:48.873Z,0
2017-07-29T01:32:50.366Z,0
2017-07-29T01:33:51.791Z,0
2017-07-29T01:34:53.221Z,0
2017-07-29T01:35:54.720Z,0
2017-07-29T01:36:56.143Z,0
2017-07-29T01:37:57.595Z,0
2017-07-29T01:38:59.024Z,0
2017-07-29T01:40:00.451Z,0
2017-07-29T01:41:01.873Z,0
2017-07-29T01:42:03.301Z,0
2017-07-29T01:43:04.733Z,0
2017-07-29T01:44:06.147Z,0
2017-07-29T01:45:07.585Z,0
2017-07-29T01:46:09.029Z,0
2017-07-29T01:47:10.507Z,0
2017-07-29T01:48:11.932Z,0
2017-07-29T01:49:13.365Z,0
2017-07-29T01:50:14.815Z,0
2017-07-29T01:51:16.217Z,0
2017-07-29T01:52:17.667Z,0
2017-07-29T01:53:19.087Z,0
2017-07-29T01:54:20.516Z,0
2017-07-29T01:55:21.947Z,0
2017-07-29T01:56:23.396Z,0
2017-07-29T01:57:24.847Z,0
2017-07-29T01:58:26.283Z,0
2017-07-29T01:59:27.729Z,0
2017-07-29T02:00:29.171Z,0
2017-07-29T02:01:30.617Z,0
2017-07-29T02:02:32.053Z,0
2017-07-29T02:03:33.506Z,0
2017-07-29T02:04:34.964Z,0
2017-07-29T02:05:36.436Z,0
2017-07-29T02:06:37.885Z,0
2017-07-29T02:07:39.325Z,0
2017-07-29T02:08:40.765Z,0
2017-07-29T02:09:42.207Z,0
2017-07-29T02:10:43.643Z,0
2017-07-29T02:11:45.082Z,0
2017-07-29T02:12:46.567Z,0
2017-07-29T02:13:48.017Z,0
2017-07-29T02:14:49.369Z,0
2017-07-29T02:15:50.798Z,0
2017-07-29T02:16:52.222Z,0
2017-07-29T02:17:53.652Z,0
2017-07-29T02:18:55.098Z,0
2017-07-29T02:19:56.527Z,0
2017-07-29T02:20:57.959Z,0
2017-07-29T02:21:59.396Z,0
2017-07-29T02:23:00.823Z,0
2017-07-29T02:24:02.285Z,0
2017-07-29T02:25:03.709Z,0
2017-07-29T02:26:05.140Z,0
2017-07-29T02:27:06.559Z,0
2017-07-29T02:28:08.028Z,0
2017-07-29T02:29:09.466Z,0
2017-07-29T02:30:10.889Z,0
2017-07-29T02:31:12.317Z,0
2017-07-29T02:32:13.744Z,0
2017-07-29T02:33:15.159Z,0
2017-07-29T02:34:16.606Z,0
2017-07-29T02:35:18.032Z,0
2017-07-29T02:36:19.456Z,0
2017-07-29T02:37:20.888Z,0
2017-07-29T02:38:22.316Z,0
2017-07-29T02:39:23.731Z,0
2017-07-29T02:40:25.159Z,0
2017-07-29T02:41:26.596Z,0
2017-07-29T02:42:28.099Z,0
2017-07-29T02:43:29.514Z,0
2017-07-29T02:44:30.962Z,0
2017-07-29T02:45:32.434Z,0
2017-07-29T02:46:33.929Z,0
2017-07-29T02:47:35.408Z,0
2017-07-29T02:48:36.867Z,0
2017-07-29T02:49:38.301Z,0
2017-07-29T02:50:39.737Z,0
2017-07-29T02:51:41.175Z,0
2017-07-29T02:52:42.607Z,0
2017-07-29T02:53:44.052Z,0
2017-07-29T02:54:45.501Z,0
2017-07-29T02:55:46.936Z,0
2017-07-29T02:56:48.391Z,0
2017-07-29T02:57:49.829Z,0
2017-07-29T02:58:51.274Z,0
2017-07-29T02:59:52.720Z,0
2017-07-29T03:00:54.162Z,0
2017-07-29T03:01:55.624Z,0
2017-07-29T03:02:57.076Z,0
2017-07-29T03:03:58.525Z,0
2017-07-29T03:04:59.959Z,0
2017-07-29T03:06:01.390Z,0
2017-07-29T03:07:02.838Z,0
2017-07-29T03:08:04.284Z,0
2017-07-29T03:09:05.711Z,0
2017-07-29T03:10:07.138Z,0
2017-07-29T03:11:08.591Z,0
2017-07-29T03:12:10.053Z,0
2017-07-29T03:13:11.476Z,0
2017-07-29T03:14:12.954Z,0
2017-07-29T03:15:14.371Z,0
2017-07-29T03:16:15.812Z,0
2017-07-29T03:17:17.227Z,0
2017-07-29T03:18:18.657Z,0
2017-07-29T03:19:20.127Z,0
2017-07-29T03:20:21.543Z,0
2017-07-29T03:21:22.988Z,0
2017-07-29T03:22:24.402Z,0
2017-07-29T03:23:25.833Z,0
2017-07-29T03:24:27.253Z,0
2017-07-29T03:25:28.665Z,0
2017-07-29T03:26:30.092Z,0
2017-07-29T03:27:31.512Z,0
2017-07-29T03:28:32.941Z,0
2017-07-29T03:29:34.462Z,0
2017-07-29T03:30:35.892Z,0
2017-07-29T03:31:37.311Z,0
2017-07-29T03:32:38.752Z,0
2017-07-29T03:33:40.186Z,0
2017-07-29T03:34:41.624Z,0
2017-07-29T03:35:43.058Z,0
2017-07-29T03:36:44.482Z,0
2017-07-29T03:37:45.918Z,0
2017-07-29T03:38:47.371Z,0
2017-07-29T03:39:48.793Z,0
2017-07-29T03:40:50.223Z,0
2017-07-29T03:41:51.649Z,0
2017-07-29T03:42:53.078Z,0
2017-07-29T03:43:54.524Z,0
2017-07-29T03:44:55.956Z,0
2017-07-29T03:45:57.401Z,0
2017-07-29T03:46:58.838Z,0
2017-07-29T03:48:00.283Z,0
2017-07-29T03:49:01.740Z,0
2017-07-29T03:50:03.205Z,0
2017-07-29T03:51:04.587Z,0
2017-07-29T03:52:06.106Z,0
2017-07-29T03:53:07.570Z,0
2017-07-29T03:54:09.016Z,0
2017-07-29T03:55:10.444Z,0
2017-07-29T03:56:11.889Z,0
2017-07-29T03:57:13.339Z,0
2017-07-29T03:58:14.776Z,0
2017-07-29T03:59:16.201Z,0
2017-07-29T04:00:17.646Z,0
2017-07-29T04:01:19.082Z,0
2017-07-29T04:02:20.502Z,0
2017-07-29T04:03:21.925Z,0
2017-07-29T04:04:23.353Z,0
2017-07-29T04:05:24.773Z,0
2017-07-29T04:06:26.192Z,0
2017-07-29T04:07:27.628Z,0
2017-07-29T04:08:29.053Z,0
2017-07-29T04:09:30.479Z,0
2017-07-29T04:10:31.919Z,0
2017-07-29T04:11:33.358Z,0
2017-07-29T04:12:34.791Z,0
2017-07-29T04:13:36.205Z,0
2017-07-29T04:14:37.651Z,0
2017-07-29T04:15:39.096Z,0
2017-07-29T04:16:40.537Z,0
2017-07-29T04:17:41.958Z,0
2017-07-29T04:18:43.380Z,5
2017-07-29T04:19:44.798Z,5
2017-07-29T04:20:46.223Z,5
2017-07-29T04:21:47.657Z,5
2017-07-29T04:22:49.082Z,5
2017-07-29T04:23:50.519Z,5
2017-07-29T04:24:51.932Z,5
2017-07-29T04:25:53.368Z,5
2017-07-29T04:26:54.790Z,5
2017-07-29T04:27:56.221Z,5
2017-07-29T04:28:57.645Z,5
2017-07-29T04:29:59.090Z,10
2017-07-29T04:31:00.533Z,10
2017-07-29T04:32:01.970Z,10
2017-07-29T04:33:03.410Z,10
2017-07-29T04:34:04.841Z,10
2017-07-29T04:35:06.283Z,10
2017-07-29T04:36:07.713Z,10
2017-07-29T04:37:09.150Z,10
2017-07-29T04:38:10.581Z,10
2017-07-29T04:39:12.010Z,10
2017-07-29T04:40:13.461Z,10
2017-07-29T04:41:14.890Z,10
2017-07-29T04:42:16.327Z,10
2017-07-29T04:43:17.756Z,10
2017-07-29T04:44:19.193Z,5
2017-07-29T04:45:20.630Z,5
2017-07-29T04:46:22.054Z,5
2017-07-29T04:47:23.525Z,5
2017-07-29T04:48:24.932Z,5
2017-07-29T04:49:26.356Z,5
2017-07-29T04:50:27.782Z,5
2017-07-29T04:51:29.212Z,10
2017-07-29T04:52:30.634Z,10
2017-07-29T04:53:32.070Z,10
2017-07-29T04:54:33.505Z,10
2017-07-29T04:55:34.929Z,10
2017-07-29T04:56:36.382Z,10
2017-07-29T04:57:38.043Z,10
2017-07-29T04:58:39.491Z,15
2017-07-29T04:59:40.938Z,15
2017-07-29T05:00:42.373Z,15
2017-07-29T05:01:43.817Z,15
2017-07-29T05:02:45.309Z,10
2017-07-29T05:03:46.727Z,10
2017-07-29T05:04:48.151Z,10
2017-07-29T05:05:49.583Z,10
2017-07-29T05:06:51.449Z,10
2017-07-29T05:07:52.862Z,10
2017-07-29T05:08:54.324Z,10
2017-07-29T05:09:55.817Z,10
2017-07-29T05:10:57.286Z,10
2017-07-29T05:11:58.796Z,15
2017-07-29T05:13:00.385Z,15
2017-07-29T05:14:01.969Z,15
2017-07-29T05:15:03.448Z,15
2017-07-29T05:16:05.110Z,15
2017-07-29T05:17:06.589Z,15
2017-07-29T05:18:08.056Z,15
2017-07-29T05:19:09.674Z,15
2017-07-29T05:20:11.079Z,15
2017-07-29T05:21:12.574Z,15
2017-07-29T05:22:14.168Z,15
2017-07-29T05:23:15.870Z,15
2017-07-29T05:24:17.393Z,15
2017-07-29T05:25:18.953Z,15
2017-07-29T05:26:20.464Z,15
2017-07-29T05:27:21.978Z,15
2017-07-29T05:28:23.519Z,15
2017-07-29T05:29:25.340Z,15
2017-07-29T05:30:26.822Z,15
2017-07-29T05:31:28.424Z,15
2017-07-29T05:32:29.963Z,10
2017-07-29T05:33:31.418Z,10
2017-07-29T05:34:32.908Z,10
2017-07-29T05:35:34.395Z,15
2017-07-29T05:36:35.942Z,15
2017-07-29T05:37:37.462Z,20
2017-07-29T05:38:38.959Z,20
2017-07-29T05:39:40.504Z,25
2017-07-29T05:40:42.014Z,25
2017-07-29T05:41:43.482Z,30
2017-07-29T05:42:44.974Z,35
2017-07-29T05:43:46.488Z,35
2017-07-29T05:44:48.067Z,35
2017-07-29T05:45:49.636Z,35
2017-07-29T05:46:51.088Z,40
2017-07-29T05:47:52.553Z,40
2017-07-29T05:48:54.017Z,40
2017-07-29T05:49:55.468Z,35
2017-07-29T05:50:56.915Z,35
2017-07-29T05:51:58.358Z,35
2017-07-29T05:52:59.826Z,30
2017-07-29T05:54:01.259Z,30
2017-07-29T05:55:02.743Z,25
2017-07-29T05:56:04.182Z,30
2017-07-29T05:57:06.988Z,30
2017-07-29T05:58:08.480Z,30
2017-07-29T05:59:09.912Z,30
2017-07-29T06:00:11.374Z,35
2017-07-29T06:01:12.823Z,40
2017-07-29T06:02:14.285Z,40
2017-07-29T06:03:15.712Z,40
2017-07-29T06:04:17.151Z,40
2017-07-29T06:05:18.614Z,40
2017-07-29T06:06:20.063Z,40
2017-07-29T06:07:21.502Z,45
2017-07-29T06:08:22.929Z,45
2017-07-29T06:09:24.681Z,45
2017-07-29T06:10:26.520Z,40
2017-07-29T06:11:29.025Z,45
2017-07-29T06:12:31.292Z,50
2017-07-29T06:13:32.736Z,50
2017-07-29T06:14:34.178Z,60
2017-07-29T06:15:35.617Z,75
2017-07-29T06:16:37.076Z,75
2017-07-29T06:17:38.552Z,70
2017-07-29T06:18:39.995Z,70
2017-07-29T06:19:41.450Z,75
2017-07-29T06:20:42.895Z,80
2017-07-29T06:21:44.335Z,75
2017-07-29T06:22:47.265Z,80
2017-07-29T06:23:50.375Z,90
2017-07-29T06:24:51.992Z,105
2017-07-29T06:25:53.484Z,145
2017-07-29T06:26:54.970Z,165
2017-07-29T06:27:56.556Z,170
2017-07-29T06:28:57.981Z,160
2017-07-29T06:29:59.416Z,135
2017-07-29T06:31:00.896Z,125
2017-07-29T06:32:02.370Z,125
2017-07-29T06:33:03.832Z,130
2017-07-29T06:34:05.412Z,135
2017-07-29T06:35:06.888Z,145
2017-07-29T06:36:08.337Z,160
2017-07-29T06:37:09.812Z,170
2017-07-29T06:38:11.242Z,175
2017-07-29T06:39:12.702Z,170
2017-07-29T06:40:14.140Z,175
2017-07-29T06:41:15.593Z,185
2017-07-29T06:42:17.056Z,175
2017-07-29T06:43:18.505Z,170
2017-07-29T06:44:19.939Z,185
2017-07-29T06:45:21.379Z,215
2017-07-29T06:46:22.813Z,65
2017-07-29T06:47:24.279Z,50
2017-07-29T06:48:25.835Z,35
2017-07-29T06:49:27.280Z,30
2017-07-29T06:50:28.779Z,35
2017-07-29T06:51:30.254Z,35
2017-07-29T06:52:31.736Z,35
2017-07-29T06:53:33.201Z,30
2017-07-29T06:54:34.762Z,30
2017-07-29T06:55:36.215Z,20
2017-07-29T06:56:37.716Z,20
2017-07-29T06:57:39.142Z,20
2017-07-29T06:58:40.677Z,20
2017-07-29T06:59:42.115Z,25
2017-07-29T07:00:43.558Z,25
2017-07-29T07:01:45.017Z,25
2017-07-29T07:02:46.473Z,30
2017-07-29T07:03:47.889Z,30
2017-07-29T07:04:49.320Z,30
2017-07-29T07:05:50.750Z,35
2017-07-29T07:06:52.221Z,35
2017-07-29T07:07:53.641Z,40
2017-07-29T07:08:55.102Z,40
2017-07-29T07:09:56.634Z,35
2017-07-29T07:10:58.147Z,30
2017-07-29T07:11:59.603Z,30
2017-07-29T07:13:01.072Z,25
2017-07-29T07:14:02.592Z,25
2017-07-29T07:15:04.142Z,25
2017-07-29T07:16:05.656Z,20
2017-07-29T07:17:07.166Z,20
2017-07-29T07:18:08.670Z,20
2017-07-29T07:19:10.264Z,20
2017-07-29T07:20:11.800Z,20
2017-07-29T07:21:13.318Z,25
2017-07-29T07:22:14.847Z,30
2017-07-29T07:23:16.374Z,40
2017-07-29T07:24:17.908Z,40
2017-07-29T07:25:19.435Z,40
2017-07-29T07:26:21.070Z,45
2017-07-29T07:27:22.584Z,50
2017-07-29T07:28:24.295Z,55
2017-07-29T07:29:25.662Z,55
2017-07-29T07:30:27.168Z,60
2017-07-29T07:31:28.673Z,70
2017-07-29T07:32:30.184Z,60
2017-07-29T07:33:31.845Z,60
2017-07-29T07:34:33.360Z,60
2017-07-29T07:35:34.862Z,60
2017-07-29T07:36:36.389Z,55
2017-07-29T07:37:37.747Z,45
2017-07-29T07:38:39.401Z,50
2017-07-29T07:39:40.912Z,60
2017-07-29T07:40:42.426Z,60
2017-07-29T07:41:44.120Z,60
2017-07-29T07:42:45.634Z,60
2017-07-29T07:43:47.149Z,65
2017-07-29T07:44:48.529Z,70
2017-07-29T07:45:50.147Z,65
2017-07-29T07:46:51.697Z,65
2017-07-29T07:47:53.211Z,65
2017-07-29T07:48:54.719Z,70
2017-07-29T07:49:56.222Z,70
2017-07-29T07:50:57.745Z,70
2017-07-29T07:51:59.271Z,65
2017-07-29T07:53:00.941Z,65
2017-07-29T07:54:02.451Z,50
2017-07-29T07:55:03.958Z,65
2017-07-29T07:56:05.481Z,60
2017-07-29T07:57:06.988Z,55
2017-07-29T07:58:08.486Z,55
2017-07-29T07:59:10.037Z,60
2017-07-29T08:00:11.727Z,65
2017-07-29T08:01:13.263Z,60
2017-07-29T08:02:14.802Z,50
2017-07-29T08:03:16.331Z,45
2017-07-29T08:04:17.840Z,40
2017-07-29T08:05:19.280Z,40
2017-07-29T08:06:20.810Z,45
2017-07-29T08:07:22.356Z,50
2017-07-29T08:08:23.876Z,45
2017-07-29T08:09:25.330Z,45
2017-07-29T08:10:26.782Z,45
2017-07-29T08:11:28.220Z,45
2017-07-29T08:12:29.681Z,35
2017-07-29T08:13:31.159Z,45
2017-07-29T08:14:32.605Z,45
2017-07-29T08:15:34.050Z,45
2017-07-29T08:16:35.511Z,45
2017-07-29T08:17:36.956Z,40
2017-07-29T08:18:38.396Z,50
2017-07-29T08:19:39.855Z,55
2017-07-29T08:20:41.289Z,45
2017-07-29T08:21:42.853Z,50
2017-07-29T08:22:44.308Z,40
2017-07-29T08:23:45.739Z,35
2017-07-29T08:24:47.261Z,35
2017-07-29T08:25:48.698Z,40
2017-07-29T08:26:50.144Z,40
2017-07-29T08:27:51.570Z,35
2017-07-29T08:28:52.995Z,35
2017-07-29T08:29:54.431Z,35
2017-07-29T08:30:55.883Z,35
2017-07-29T08:31:57.311Z,40
2017-07-29T08:32:58.752Z,35
2017-07-29T08:34:00.299Z,35
2017-07-29T08:35:01.768Z,35
2017-07-29T08:36:03.203Z,35
2017-07-29T08:37:04.706Z,35
2017-07-29T08:38:06.131Z,35
2017-07-29T08:39:07.603Z,35
2017-07-29T08:40:09.128Z,30
2017-07-29T08:41:10.591Z,30
2017-07-29T08:42:12.031Z,35
2017-07-29T08:43:13.465Z,40
2017-07-29T08:44:14.900Z,40
2017-07-29T08:45:16.349Z,45
2017-07-29T08:46:17.794Z,45
2017-07-29T08:47:19.227Z,40
2017-07-29T08:48:20.704Z,40
2017-07-29T08:49:22.166Z,35
2017-07-29T08:50:23.601Z,35
2017-07-29T08:51:25.183Z,35
2017-07-29T08:52:26.619Z,40
2017-07-29T08:53:28.051Z,40
2017-07-29T08:54:29.494Z,40
2017-07-29T08:55:30.942Z,40
2017-07-29T08:56:32.397Z,40
2017-07-29T08:57:33.870Z,40
2017-07-29T08:58:35.339Z,45
2017-07-29T08:59:36.788Z,50
2017-07-29T09:00:38.236Z,45
2017-07-29T09:01:39.701Z,40
2017-07-29T09:02:41.146Z,35
2017-07-29T09:03:42.567Z,30
2017-07-29T09:04:44.122Z,30
2017-07-29T09:05:45.625Z,25
2017-07-29T09:06:47.043Z,25
2017-07-29T09:07:48.486Z,25
2017-07-29T09:08:49.971Z,25
2017-07-29T09:09:51.464Z,25
2017-07-29T09:10:52.935Z,25
2017-07-29T09:11:54.405Z,25
2017-07-29T09:12:55.860Z,25
2017-07-29T09:13:57.301Z,25
2017-07-29T09:14:58.741Z,25
2017-07-29T09:16:00.190Z,25
2017-07-29T09:17:01.736Z,25
2017-07-29T09:18:03.205Z,25
2017-07-29T09:19:04.692Z,25
2017-07-29T09:20:06.130Z,25
2017-07-29T09:21:07.570Z,25
2017-07-29T09:22:09.090Z,25
2017-07-29T09:23:10.536Z,25
2017-07-29T09:24:11.954Z,20
2017-07-29T09:25:13.383Z,20
2017-07-29T09:26:14.868Z,15
2017-07-29T09:27:16.310Z,20
2017-07-29T09:28:17.749Z,20
2017-07-29T09:29:19.193Z,25
2017-07-29T09:30:20.629Z,30
2017-07-29T09:31:22.080Z,35
2017-07-29T09:32:23.518Z,50
2017-07-29T09:33:24.969Z,45
2017-07-29T09:34:26.558Z,45
2017-07-29T09:35:28.298Z,55
2017-07-29T09:36:29.773Z,55
2017-07-29T09:37:31.226Z,50
2017-07-29T09:38:32.929Z,45
2017-07-29T09:39:34.381Z,40
2017-07-29T09:40:35.832Z,45
2017-07-29T09:41:37.294Z,45
2017-07-29T09:42:38.729Z,45
2017-07-29T09:43:40.237Z,45
2017-07-29T09:44:41.713Z,40
2017-07-29T09:45:43.145Z,40
2017-07-29T09:46:44.617Z,40
2017-07-29T09:47:46.053Z,40
2017-07-29T09:48:47.496Z,35
2017-07-29T09:49:48.961Z,35
2017-07-29T09:50:50.396Z,45
2017-07-29T09:51:51.907Z,45
2017-07-29T09:52:53.335Z,40
2017-07-29T09:53:54.782Z,45
2017-07-29T09:54:56.223Z,45
2017-07-29T09:55:57.706Z,50
2017-07-29T09:56:59.144Z,45
2017-07-29T09:58:00.594Z,50
2017-07-29T09:59:02.043Z,45
2017-07-29T10:00:03.494Z,50
2017-07-29T10:01:04.942Z,55
2017-07-29T10:02:06.378Z,50
2017-07-29T10:03:07.827Z,45
2017-07-29T10:04:09.363Z,50
2017-07-29T10:05:10.799Z,50
2017-07-29T10:06:12.290Z,50
2017-07-29T10:07:13.791Z,50
2017-07-29T10:08:15.245Z,50
2017-07-29T10:09:16.688Z,55
2017-07-29T10:10:18.197Z,55
2017-07-29T10:11:19.706Z,50
2017-07-29T10:12:21.157Z,45
2017-07-29T10:13:22.591Z,45
2017-07-29T10:14:24.050Z,45
2017-07-29T10:15:25.553Z,40
2017-07-29T10:16:27.001Z,40
2017-07-29T10:17:28.433Z,45
2017-07-29T10:18:29.869Z,45
2017-07-29T10:19:31.332Z,40
2017-07-29T10:20:32.773Z,40
2017-07-29T10:21:34.234Z,40
2017-07-29T10:22:35.709Z,35
2017-07-29T10:23:37.143Z,45
2017-07-29T10:24:38.599Z,45
2017-07-29T10:25:40.053Z,40
2017-07-29T10:26:41.508Z,35
2017-07-29T10:27:42.971Z,35
2017-07-29T10:28:44.431Z,30
2017-07-29T10:29:45.878Z,35
2017-07-29T10:30:47.346Z,35
2017-07-29T10:31:48.860Z,35
2017-07-29T10:32:50.289Z,35
2017-07-29T10:33:51.796Z,40
2017-07-29T10:34:53.242Z,40
2017-07-29T10:35:54.726Z,40
2017-07-29T10:36:56.252Z,45
2017-07-29T10:37:57.732Z,50
2017-07-29T10:38:59.260Z,50
2017-07-29T10:40:00.729Z,45
2017-07-29T10:41:02.266Z,45
2017-07-29T10:42:03.747Z,45
2017-07-29T10:43:05.223Z,50
2017-07-29T10:44:06.698Z,50
2017-07-29T10:45:08.207Z,50
2017-07-29T10:46:09.716Z,60
2017-07-29T10:47:11.211Z,50
2017-07-29T10:48:12.656Z,50
2017-07-29T10:49:14.113Z,45
2017-07-29T10:50:15.588Z,40
2017-07-29T10:51:17.268Z,35
2017-07-29T10:52:18.876Z,30
2017-07-29T10:53:20.352Z,30
2017-07-29T10:54:22.557Z,25
2017-07-29T10:55:24.818Z,20
2017-07-29T10:56:26.296Z,20
2017-07-29T10:57:27.753Z,20
2017-07-29T10:58:29.230Z,20
2017-07-29T10:59:30.706Z,30
2017-07-29T11:00:32.236Z,30
2017-07-29T11:01:33.668Z,30
2017-07-29T11:02:35.130Z,35
2017-07-29T11:03:36.595Z,30
2017-07-29T11:04:38.036Z,35
2017-07-29T11:05:39.496Z,40
2017-07-29T11:06:40.946Z,45
2017-07-29T11:07:42.399Z,45
2017-07-29T11:08:43.839Z,45
2017-07-29T11:09:45.281Z,50
2017-07-29T11:10:46.734Z,55
2017-07-29T11:11:48.209Z,50
2017-07-29T11:12:49.671Z,50
2017-07-29T11:13:51.126Z,45
2017-07-29T11:14:52.573Z,45
2017-07-29T11:15:54.018Z,45
2017-07-29T11:16:55.483Z,50
2017-07-29T11:17:56.948Z,45
2017-07-29T11:18:58.411Z,40
2017-07-29T11:19:59.888Z,35
2017-07-29T11:21:01.341Z,35
2017-07-29T11:22:04.692Z,30
2017-07-29T11:23:07.549Z,30
2017-07-29T11:24:09.003Z,30
2017-07-29T11:25:10.474Z,35
2017-07-29T11:26:11.968Z,45
2017-07-29T11:27:13.435Z,45
2017-07-29T11:28:14.920Z,45
2017-07-29T11:29:16.386Z,40
2017-07-29T11:30:17.837Z,45
2017-07-29T11:31:19.297Z,45
2017-07-29T11:32:20.775Z,45
2017-07-29T11:33:22.315Z,45
2017-07-29T11:34:23.789Z,45
2017-07-29T11:35:25.217Z,40
2017-07-29T11:36:26.672Z,40
2017-07-29T11:37:28.103Z,40
2017-07-29T11:38:29.561Z,40
2017-07-29T11:39:31.140Z,40
2017-07-29T11:40:32.588Z,35
2017-07-29T11:41:34.068Z,35
2017-07-29T11:42:35.513Z,35
2017-07-29T11:43:36.962Z,40
2017-07-29T11:44:38.409Z,45
2017-07-29T11:45:39.862Z,50
2017-07-29T11:46:41.319Z,45
2017-07-29T11:47:42.753Z,45
2017-07-29T11:48:44.192Z,45
2017-07-29T11:49:45.629Z,50
2017-07-29T11:50:47.075Z,50
2017-07-29T11:51:48.505Z,50
2017-07-29T11:52:49.945Z,50
2017-07-29T11:53:51.406Z,50
2017-07-29T11:54:52.845Z,45
2017-07-29T11:55:54.276Z,45
2017-07-29T11:56:55.714Z,45
2017-07-29T11:57:57.149Z,50
2017-07-29T11:58:58.582Z,45
2017-07-29T12:00:00.028Z,40
2017-07-29T12:01:01.446Z,40
2017-07-29T12:02:02.872Z,45
2017-07-29T12:03:04.302Z,40
2017-07-29T12:04:05.752Z,45
2017-07-29T12:05:07.177Z,45
2017-07-29T12:06:08.610Z,50
2017-07-29T12:07:10.078Z,50
2017-07-29T12:08:11.525Z,50
2017-07-29T12:09:13.010Z,45
2017-07-29T12:10:14.441Z,45
2017-07-29T12:11:15.873Z,40
2017-07-29T12:12:17.314Z,40
2017-07-29T12:13:18.736Z,45
2017-07-29T12:14:20.160Z,40
2017-07-29T12:15:21.598Z,45
2017-07-29T12:16:23.040Z,45
2017-07-29T12:17:24.466Z,45
2017-07-29T12:18:25.906Z,50
2017-07-29T12:19:27.447Z,40
2017-07-29T12:20:28.875Z,40
2017-07-29T12:21:30.306Z,40
2017-07-29T12:22:31.736Z,35
2017-07-29T12:23:33.186Z,35
2017-07-29T12:24:34.685Z,40
2017-07-29T12:25:36.132Z,40
2017-07-29T12:26:37.570Z,50
2017-07-29T12:27:39.009Z,50
2017-07-29T12:28:40.445Z,45
2017-07-29T12:29:41.894Z,45
2017-07-29T12:30:43.328Z,40
2017-07-29T12:31:44.768Z,35
2017-07-29T12:32:46.217Z,35
2017-07-29T12:33:47.662Z,35
2017-07-29T12:34:49.111Z,30
2017-07-29T12:35:50.539Z,35
2017-07-29T12:36:51.989Z,35
2017-07-29T12:37:53.427Z,35
2017-07-29T12:38:54.858Z,30
2017-07-29T12:39:56.294Z,25
2017-07-29T12:40:57.728Z,30
2017-07-29T12:41:59.162Z,25
2017-07-29T12:43:00.596Z,25
2017-07-29T12:44:02.026Z,30
2017-07-29T12:45:03.458Z,30
2017-07-29T12:46:04.894Z,30
2017-07-29T12:47:06.320Z,30
2017-07-29T12:48:07.755Z,30
2017-07-29T12:49:09.178Z,30
2017-07-29T12:50:10.605Z,30
2017-07-29T12:51:12.055Z,30
2017-07-29T12:52:13.550Z,30
2017-07-29T12:53:15.061Z,30
2017-07-29T12:54:16.496Z,30
2017-07-29T12:55:17.988Z,30
2017-07-29T12:56:19.450Z,30
2017-07-29T12:57:20.913Z,30
2017-07-29T12:58:22.348Z,30
2017-07-29T12:59:23.782Z,30
2017-07-29T13:00:25.213Z,30
2017-07-29T13:01:26.648Z,30
2017-07-29T13:02:28.089Z,30
2017-07-29T13:03:29.524Z,25
2017-07-29T13:04:30.979Z,30
2017-07-29T13:05:32.468Z,35
2017-07-29T13:06:33.931Z,30
2017-07-29T13:07:35.408Z,30
2017-07-29T13:08:36.842Z,35
2017-07-29T13:09:38.353Z,30
2017-07-29T13:10:39.804Z,30
2017-07-29T13:11:41.241Z,25
2017-07-29T13:12:42.703Z,30
2017-07-29T13:13:44.158Z,30
2017-07-29T13:14:45.600Z,25
2017-07-29T13:15:47.059Z,25
2017-07-29T13:16:48.750Z,25
2017-07-29T13:17:50.268Z,25
2017-07-29T13:18:51.670Z,25
2017-07-29T13:19:53.161Z,25
2017-07-29T13:20:54.601Z,30
2017-07-29T13:21:56.058Z,25
2017-07-29T13:22:57.519Z,25
2017-07-29T13:23:58.983Z,30
2017-07-29T13:25:00.464Z,30
2017-07-29T13:26:01.938Z,25
2017-07-29T13:27:03.382Z,30
2017-07-29T13:28:04.827Z,25
2017-07-29T13:29:06.272Z,30
2017-07-29T13:30:07.717Z,25
2017-07-29T13:31:09.162Z,30
2017-07-29T13:32:10.600Z,25
2017-07-29T13:33:12.039Z,25
2017-07-29T13:34:13.474Z,30
2017-07-29T13:35:14.926Z,30
2017-07-29T13:36:16.370Z,30
2017-07-29T13:37:17.804Z,30
2017-07-29T13:38:19.238Z,30
2017-07-29T13:39:20.680Z,30
2017-07-29T13:40:22.147Z,30
2017-07-29T13:41:23.584Z,25
2017-07-29T13:42:25.036Z,25
2017-07-29T13:43:26.482Z,25
2017-07-29T13:44:27.911Z,25
2017-07-29T13:45:29.357Z,25
2017-07-29T13:46:30.810Z,25
2017-07-29T13:47:32.247Z,25
2017-07-29T13:48:33.693Z,25
2017-07-29T13:49:35.120Z,25
2017-07-29T13:50:36.600Z,25
2017-07-29T13:51:38.037Z,25
2017-07-29T13:52:39.500Z,25
2017-07-29T13:53:40.941Z,25
2017-07-29T13:54:42.365Z,25
2017-07-29T13:55:43.847Z,20
2017-07-29T13:56:45.942Z,30
2017-07-29T13:57:47.392Z,25
2017-07-29T13:58:48.847Z,35
2017-07-29T13:59:50.293Z,35
2017-07-29T14:00:51.733Z,30
2017-07-29T14:01:53.212Z,35
2017-07-29T14:02:54.656Z,40
2017-07-29T14:03:56.090Z,40
2017-07-29T14:04:57.522Z,40
2017-07-29T14:05:58.986Z,40
2017-07-29T14:07:00.445Z,35
2017-07-29T14:08:01.905Z,45
2017-07-29T14:09:03.349Z,40
2017-07-29T14:10:04.791Z,50
2017-07-29T14:11:06.238Z,45
2017-07-29T14:12:07.700Z,40
2017-07-29T14:13:09.178Z,35
2017-07-29T14:14:10.651Z,40
2017-07-29T14:15:12.106Z,40
2017-07-29T14:16:13.570Z,35
2017-07-29T14:17:15.027Z,35
2017-07-29T14:18:16.484Z,30
2017-07-29T14:19:17.945Z,30
2017-07-29T14:20:19.407Z,30
2017-07-29T14:21:20.848Z,30
2017-07-29T14:22:22.298Z,30
2017-07-29T14:23:23.763Z,25
2017-07-29T14:24:25.246Z,30
2017-07-29T14:25:26.731Z,35
2017-07-29T14:26:28.202Z,35
2017-07-29T14:27:29.657Z,35
2017-07-29T14:28:31.100Z,35
2017-07-29T14:29:32.548Z,35
2017-07-29T14:30:34.009Z,35
2017-07-29T14:31:35.447Z,35
2017-07-29T14:32:36.895Z,40
2017-07-29T14:33:38.339Z,45
2017-07-29T14:34:39.976Z,45
2017-07-29T14:35:41.446Z,45
2017-07-29T14:36:42.882Z,45
2017-07-29T14:37:44.329Z,40
2017-07-29T14:38:45.766Z,40
2017-07-29T14:39:47.207Z,45
2017-07-29T14:40:48.683Z,40
2017-07-29T14:41:50.115Z,40
2017-07-29T14:42:51.556Z,40
2017-07-29T14:43:52.991Z,40
2017-07-29T14:44:54.451Z,40
2017-07-29T14:45:55.901Z,40